sensor_id;sensor_type;location;lat;lon;timestamp;P1;durP1;ratioP1;P2;durP2;ratioP2
3891;SDS011;1961;48.194;16.370;2022-12-07T00:01:19;52.60;;;11.65;;
3891;SDS011;1961;48.194;16.370;2022-12-07T00:03:47;49.05;;;11.52;;
3891;SDS011;1961;48.194;16.370;2022-12-07T00:06:14;50.70;;;12.55;;
3891;SDS011;1961;48.194;16.370;2022-12-07T00:08:40;48.55;;;10.70;;
3891;SDS011;1961;48.194;16.370;2022-12-07T00:11:07;48.33;;;11.82;;
3891;SDS011;1961;48.194;16.370;2022-12-07T00:13:34;48.10;;;11.00;;
3891;SDS011;1961;48.194;16.370;2022-12-07T00:16:01;49.03;;;11.68;;
3891;SDS011;1961;48.194;16.370;2022-12-07T00:18:28;50.88;;;11.70;;
3891;SDS011;1961;48.194;16.370;2022-12-07T00:21:01;50.92;;;11.27;;
3891;SDS011;1961;48.194;16.370;2022-12-07T00:23:27;49.65;;;11.38;;
3891;SDS011;1961;48.194;16.370;2022-12-07T00:25:54;51.47;;;12.60;;
3891;SDS011;1961;48.194;16.370;2022-12-07T00:28:20;48.53;;;10.63;;
3891;SDS011;1961;48.194;16.370;2022-12-07T00:30:46;50.00;;;11.65;;
3891;SDS011;1961;48.194;16.370;2022-12-07T00:33:12;51.53;;;11.98;;
3891;SDS011;1961;48.194;16.370;2022-12-07T00:35:38;51.17;;;12.27;;
3891;SDS011;1961;48.194;16.370;2022-12-07T00:38:04;50.80;;;12.10;;
3891;SDS011;1961;48.194;16.370;2022-12-07T00:40:31;52.28;;;13.55;;
3891;SDS011;1961;48.194;16.370;2022-12-07T00:42:57;53.72;;;12.57;;
3891;SDS011;1961;48.194;16.370;2022-12-07T00:45:23;49.90;;;12.43;;
3891;SDS011;1961;48.194;16.370;2022-12-07T00:47:49;51.65;;;13.15;;
3891;SDS011;1961;48.194;16.370;2022-12-07T00:50:15;50.42;;;12.13;;
3891;SDS011;1961;48.194;16.370;2022-12-07T00:52:42;51.80;;;13.57;;
3891;SDS011;1961;48.194;16.370;2022-12-07T00:55:08;50.75;;;11.60;;
3891;SDS011;1961;48.194;16.370;2022-12-07T00:57:34;51.33;;;12.75;;
3891;SDS011;1961;48.194;16.370;2022-12-07T01:00:00;52.40;;;12.95;;
3891;SDS011;1961;48.194;16.370;2022-12-07T01:02:26;50.83;;;13.15;;
3891;SDS011;1961;48.194;16.370;2022-12-07T01:04:53;55.47;;;15.50;;
3891;SDS011;1961;48.194;16.370;2022-12-07T01:07:19;51.25;;;13.13;;
3891;SDS011;1961;48.194;16.370;2022-12-07T01:09:45;55.97;;;14.70;;
3891;SDS011;1961;48.194;16.370;2022-12-07T01:12:11;51.95;;;13.80;;
3891;SDS011;1961;48.194;16.370;2022-12-07T01:14:37;53.38;;;13.85;;
3891;SDS011;1961;48.194;16.370;2022-12-07T01:17:03;54.03;;;14.77;;
3891;SDS011;1961;48.194;16.370;2022-12-07T01:19:29;52.65;;;14.50;;
3891;SDS011;1961;48.194;16.370;2022-12-07T01:21:56;53.45;;;14.10;;
3891;SDS011;1961;48.194;16.370;2022-12-07T01:24:22;51.63;;;12.98;;
3891;SDS011;1961;48.194;16.370;2022-12-07T01:26:48;54.88;;;14.77;;
3891;SDS011;1961;48.194;16.370;2022-12-07T01:29:15;54.70;;;15.18;;
3891;SDS011;1961;48.194;16.370;2022-12-07T01:31:41;54.15;;;15.32;;
3891;SDS011;1961;48.194;16.370;2022-12-07T01:34:09;53.55;;;14.20;;
3891;SDS011;1961;48.194;16.370;2022-12-07T01:36:36;54.70;;;14.82;;
3891;SDS011;1961;48.194;16.370;2022-12-07T01:39:06;54.08;;;14.90;;
3891;SDS011;1961;48.194;16.370;2022-12-07T01:41:33;53.13;;;13.75;;
3891;SDS011;1961;48.194;16.370;2022-12-07T01:44:14;52.30;;;13.95;;
3891;SDS011;1961;48.194;16.370;2022-12-07T01:46:41;54.10;;;15.32;;
3891;SDS011;1961;48.194;16.370;2022-12-07T01:49:27;56.40;;;16.63;;
3891;SDS011;1961;48.194;16.370;2022-12-07T01:52:07;56.38;;;16.38;;
3891;SDS011;1961;48.194;16.370;2022-12-07T01:54:34;56.15;;;15.73;;
3891;SDS011;1961;48.194;16.370;2022-12-07T01:57:01;56.45;;;15.95;;
3891;SDS011;1961;48.194;16.370;2022-12-07T01:59:28;55.80;;;15.85;;
3891;SDS011;1961;48.194;16.370;2022-12-07T02:01:54;57.53;;;16.77;;
3891;SDS011;1961;48.194;16.370;2022-12-07T02:04:22;56.80;;;16.15;;
3891;SDS011;1961;48.194;16.370;2022-12-07T02:06:48;55.00;;;16.00;;
3891;SDS011;1961;48.194;16.370;2022-12-07T02:09:15;59.22;;;16.77;;
3891;SDS011;1961;48.194;16.370;2022-12-07T02:11:41;56.45;;;15.55;;
3891;SDS011;1961;48.194;16.370;2022-12-07T02:14:08;56.50;;;15.65;;
3891;SDS011;1961;48.194;16.370;2022-12-07T02:21:59;51.75;;;13.32;;
3891;SDS011;1961;48.194;16.370;2022-12-07T02:29:27;53.67;;;14.25;;
3891;SDS011;1961;48.194;16.370;2022-12-07T02:32:10;56.75;;;14.70;;
3891;SDS011;1961;48.194;16.370;2022-12-07T02:37:55;54.47;;;15.13;;
3891;SDS011;1961;48.194;16.370;2022-12-07T02:40:40;52.38;;;13.18;;
3891;SDS011;1961;48.194;16.370;2022-12-07T02:42:41;55.58;;;14.00;;
3891;SDS011;1961;48.194;16.370;2022-12-07T02:45:09;59.22;;;15.20;;
3891;SDS011;1961;48.194;16.370;2022-12-07T02:47:36;53.65;;;13.93;;
3891;SDS011;1961;48.194;16.370;2022-12-07T02:50:06;52.10;;;14.82;;
3891;SDS011;1961;48.194;16.370;2022-12-07T02:52:33;55.78;;;15.20;;
3891;SDS011;1961;48.194;16.370;2022-12-07T02:54:59;55.25;;;14.68;;
3891;SDS011;1961;48.194;16.370;2022-12-07T03:00:11;55.85;;;15.18;;
3891;SDS011;1961;48.194;16.370;2022-12-07T03:02:53;53.67;;;14.45;;
3891;SDS011;1961;48.194;16.370;2022-12-07T03:08:02;56.72;;;15.73;;
3891;SDS011;1961;48.194;16.370;2022-12-07T03:10:50;51.53;;;13.77;;
3891;SDS011;1961;48.194;16.370;2022-12-07T03:16:02;53.80;;;14.27;;
3891;SDS011;1961;48.194;16.370;2022-12-07T03:18:29;52.67;;;13.38;;
3891;SDS011;1961;48.194;16.370;2022-12-07T03:20:57;54.28;;;14.50;;
3891;SDS011;1961;48.194;16.370;2022-12-07T03:23:25;55.55;;;15.13;;
3891;SDS011;1961;48.194;16.370;2022-12-07T03:25:52;52.83;;;13.23;;
3891;SDS011;1961;48.194;16.370;2022-12-07T03:28:20;56.72;;;14.63;;
3891;SDS011;1961;48.194;16.370;2022-12-07T03:30:52;54.50;;;13.63;;
3891;SDS011;1961;48.194;16.370;2022-12-07T03:33:31;51.53;;;13.23;;
3891;SDS011;1961;48.194;16.370;2022-12-07T03:36:06;53.08;;;13.65;;
3891;SDS011;1961;48.194;16.370;2022-12-07T03:41:35;52.85;;;13.90;;
3891;SDS011;1961;48.194;16.370;2022-12-07T03:44:03;55.80;;;14.70;;
3891;SDS011;1961;48.194;16.370;2022-12-07T03:54:31;52.38;;;13.75;;
3891;SDS011;1961;48.194;16.370;2022-12-07T03:56:59;53.70;;;10.73;;
3891;SDS011;1961;48.194;16.370;2022-12-07T03:59:26;52.10;;;13.30;;
3891;SDS011;1961;48.194;16.370;2022-12-07T04:01:53;54.90;;;13.43;;
3891;SDS011;1961;48.194;16.370;2022-12-07T04:04:20;49.00;;;12.13;;
3891;SDS011;1961;48.194;16.370;2022-12-07T04:06:46;54.13;;;14.82;;
3891;SDS011;1961;48.194;16.370;2022-12-07T04:09:12;51.65;;;14.23;;
3891;SDS011;1961;48.194;16.370;2022-12-07T04:11:39;52.95;;;12.48;;
3891;SDS011;1961;48.194;16.370;2022-12-07T04:14:05;50.30;;;12.60;;
3891;SDS011;1961;48.194;16.370;2022-12-07T04:16:51;53.15;;;14.07;;
3891;SDS011;1961;48.194;16.370;2022-12-07T04:19:18;52.67;;;13.30;;
3891;SDS011;1961;48.194;16.370;2022-12-07T04:21:45;50.65;;;12.32;;
3891;SDS011;1961;48.194;16.370;2022-12-07T04:24:11;49.35;;;11.85;;
3891;SDS011;1961;48.194;16.370;2022-12-07T04:26:38;50.45;;;11.68;;
3891;SDS011;1961;48.194;16.370;2022-12-07T04:29:04;51.88;;;12.75;;
3891;SDS011;1961;48.194;16.370;2022-12-07T04:31:31;51.20;;;12.32;;
3891;SDS011;1961;48.194;16.370;2022-12-07T04:33:57;51.55;;;12.30;;
3891;SDS011;1961;48.194;16.370;2022-12-07T04:36:23;51.10;;;12.50;;
3891;SDS011;1961;48.194;16.370;2022-12-07T04:38:49;51.30;;;11.77;;
3891;SDS011;1961;48.194;16.370;2022-12-07T04:41:15;53.08;;;12.73;;
3891;SDS011;1961;48.194;16.370;2022-12-07T04:43:41;50.63;;;11.93;;
3891;SDS011;1961;48.194;16.370;2022-12-07T04:46:07;50.13;;;12.35;;
3891;SDS011;1961;48.194;16.370;2022-12-07T04:48:34;48.15;;;10.52;;
3891;SDS011;1961;48.194;16.370;2022-12-07T04:51:01;52.78;;;12.57;;
3891;SDS011;1961;48.194;16.370;2022-12-07T04:53:29;47.80;;;10.15;;
3891;SDS011;1961;48.194;16.370;2022-12-07T04:55:55;53.17;;;13.18;;
3891;SDS011;1961;48.194;16.370;2022-12-07T04:58:21;52.08;;;12.45;;
3891;SDS011;1961;48.194;16.370;2022-12-07T05:00:47;58.42;;;12.25;;
3891;SDS011;1961;48.194;16.370;2022-12-07T05:03:13;48.65;;;10.27;;
3891;SDS011;1961;48.194;16.370;2022-12-07T05:05:40;50.15;;;11.88;;
3891;SDS011;1961;48.194;16.370;2022-12-07T05:08:08;49.28;;;10.95;;
3891;SDS011;1961;48.194;16.370;2022-12-07T05:10:34;49.05;;;10.27;;
3891;SDS011;1961;48.194;16.370;2022-12-07T05:13:01;51.00;;;11.77;;
3891;SDS011;1961;48.194;16.370;2022-12-07T05:15:28;48.42;;;11.13;;
3891;SDS011;1961;48.194;16.370;2022-12-07T05:17:54;49.15;;;11.88;;
3891;SDS011;1961;48.194;16.370;2022-12-07T05:20:20;48.97;;;10.93;;
3891;SDS011;1961;48.194;16.370;2022-12-07T05:22:46;49.35;;;10.68;;
3891;SDS011;1961;48.194;16.370;2022-12-07T05:25:12;51.08;;;11.95;;
3891;SDS011;1961;48.194;16.370;2022-12-07T05:27:39;50.63;;;12.00;;
3891;SDS011;1961;48.194;16.370;2022-12-07T05:30:05;50.63;;;11.23;;
3891;SDS011;1961;48.194;16.370;2022-12-07T05:32:31;53.38;;;12.35;;
3891;SDS011;1961;48.194;16.370;2022-12-07T05:34:58;51.50;;;12.38;;
3891;SDS011;1961;48.194;16.370;2022-12-07T05:37:24;53.40;;;11.88;;
3891;SDS011;1961;48.194;16.370;2022-12-07T05:39:50;49.65;;;11.93;;
3891;SDS011;1961;48.194;16.370;2022-12-07T05:42:16;48.42;;;10.98;;
3891;SDS011;1961;48.194;16.370;2022-12-07T05:44:43;51.22;;;10.75;;
3891;SDS011;1961;48.194;16.370;2022-12-07T05:47:13;47.38;;;9.95;;
3891;SDS011;1961;48.194;16.370;2022-12-07T05:49:40;48.60;;;10.60;;
3891;SDS011;1961;48.194;16.370;2022-12-07T05:52:06;51.50;;;9.05;;
3891;SDS011;1961;48.194;16.370;2022-12-07T05:54:32;48.03;;;11.00;;
3891;SDS011;1961;48.194;16.370;2022-12-07T05:56:59;49.15;;;9.73;;
3891;SDS011;1961;48.194;16.370;2022-12-07T05:59:25;50.35;;;10.90;;
3891;SDS011;1961;48.194;16.370;2022-12-07T06:01:59;48.40;;;11.18;;
3891;SDS011;1961;48.194;16.370;2022-12-07T06:04:27;49.13;;;11.15;;
3891;SDS011;1961;48.194;16.370;2022-12-07T06:06:54;48.92;;;10.32;;
3891;SDS011;1961;48.194;16.370;2022-12-07T06:09:21;47.17;;;9.63;;
3891;SDS011;1961;48.194;16.370;2022-12-07T06:11:48;46.67;;;9.10;;
3891;SDS011;1961;48.194;16.370;2022-12-07T06:14:33;48.85;;;10.95;;
3891;SDS011;1961;48.194;16.370;2022-12-07T06:16:59;52.45;;;12.13;;
3891;SDS011;1961;48.194;16.370;2022-12-07T06:19:26;48.25;;;10.18;;
3891;SDS011;1961;48.194;16.370;2022-12-07T06:21:53;48.28;;;8.95;;
3891;SDS011;1961;48.194;16.370;2022-12-07T06:24:19;48.08;;;11.25;;
3891;SDS011;1961;48.194;16.370;2022-12-07T06:26:46;53.83;;;11.88;;
3891;SDS011;1961;48.194;16.370;2022-12-07T06:29:12;49.00;;;11.60;;
3891;SDS011;1961;48.194;16.370;2022-12-07T06:31:39;49.22;;;9.80;;
3891;SDS011;1961;48.194;16.370;2022-12-07T06:34:15;53.40;;;11.57;;
3891;SDS011;1961;48.194;16.370;2022-12-07T06:36:41;52.17;;;10.93;;
3891;SDS011;1961;48.194;16.370;2022-12-07T06:39:08;48.25;;;10.60;;
3891;SDS011;1961;48.194;16.370;2022-12-07T06:41:35;47.38;;;10.23;;
3891;SDS011;1961;48.194;16.370;2022-12-07T06:44:02;49.10;;;10.90;;
3891;SDS011;1961;48.194;16.370;2022-12-07T06:46:29;47.55;;;10.82;;
3891;SDS011;1961;48.194;16.370;2022-12-07T06:48:55;48.08;;;9.75;;
3891;SDS011;1961;48.194;16.370;2022-12-07T06:51:21;49.30;;;11.10;;
3891;SDS011;1961;48.194;16.370;2022-12-07T06:53:48;49.05;;;10.93;;
3891;SDS011;1961;48.194;16.370;2022-12-07T06:56:14;50.95;;;10.00;;
3891;SDS011;1961;48.194;16.370;2022-12-07T06:58:40;48.47;;;10.07;;
3891;SDS011;1961;48.194;16.370;2022-12-07T07:01:10;54.10;;;12.40;;
3891;SDS011;1961;48.194;16.370;2022-12-07T07:03:37;54.33;;;13.32;;
3891;SDS011;1961;48.194;16.370;2022-12-07T07:06:04;53.05;;;12.73;;
3891;SDS011;1961;48.194;16.370;2022-12-07T07:08:31;50.25;;;11.07;;
3891;SDS011;1961;48.194;16.370;2022-12-07T07:10:57;48.40;;;11.05;;
3891;SDS011;1961;48.194;16.370;2022-12-07T07:13:24;49.42;;;11.10;;
3891;SDS011;1961;48.194;16.370;2022-12-07T07:15:50;49.42;;;10.07;;
3891;SDS011;1961;48.194;16.370;2022-12-07T07:18:16;49.33;;;11.65;;
3891;SDS011;1961;48.194;16.370;2022-12-07T07:20:42;50.65;;;11.13;;
3891;SDS011;1961;48.194;16.370;2022-12-07T07:23:08;48.95;;;10.20;;
3891;SDS011;1961;48.194;16.370;2022-12-07T07:25:34;46.22;;;8.20;;
3891;SDS011;1961;48.194;16.370;2022-12-07T07:28:01;47.65;;;9.95;;
3891;SDS011;1961;48.194;16.370;2022-12-07T07:30:27;57.38;;;10.65;;
3891;SDS011;1961;48.194;16.370;2022-12-07T07:32:57;45.47;;;9.15;;
3891;SDS011;1961;48.194;16.370;2022-12-07T07:35:24;50.08;;;10.95;;
3891;SDS011;1961;48.194;16.370;2022-12-07T07:37:50;47.35;;;10.55;;
3891;SDS011;1961;48.194;16.370;2022-12-07T07:40:17;47.28;;;10.85;;
3891;SDS011;1961;48.194;16.370;2022-12-07T07:42:43;49.70;;;9.70;;
3891;SDS011;1961;48.194;16.370;2022-12-07T07:45:09;46.58;;;9.00;;
3891;SDS011;1961;48.194;16.370;2022-12-07T07:47:36;45.20;;;8.68;;
3891;SDS011;1961;48.194;16.370;2022-12-07T07:50:02;46.17;;;8.65;;
3891;SDS011;1961;48.194;16.370;2022-12-07T07:52:29;47.35;;;8.98;;
3891;SDS011;1961;48.194;16.370;2022-12-07T07:54:55;46.72;;;9.43;;
3891;SDS011;1961;48.194;16.370;2022-12-07T07:57:21;47.20;;;9.07;;
3891;SDS011;1961;48.194;16.370;2022-12-07T07:59:47;54.08;;;10.13;;
3891;SDS011;1961;48.194;16.370;2022-12-07T08:02:17;48.80;;;9.43;;
3891;SDS011;1961;48.194;16.370;2022-12-07T08:04:44;47.90;;;10.00;;
3891;SDS011;1961;48.194;16.370;2022-12-07T08:07:11;48.92;;;9.32;;
3891;SDS011;1961;48.194;16.370;2022-12-07T08:09:37;49.05;;;10.38;;
3891;SDS011;1961;48.194;16.370;2022-12-07T08:12:03;48.00;;;10.32;;
3891;SDS011;1961;48.194;16.370;2022-12-07T08:14:30;49.17;;;10.27;;
3891;SDS011;1961;48.194;16.370;2022-12-07T08:16:56;51.50;;;10.00;;
3891;SDS011;1961;48.194;16.370;2022-12-07T08:19:23;48.83;;;10.50;;
3891;SDS011;1961;48.194;16.370;2022-12-07T08:21:50;49.78;;;9.52;;
3891;SDS011;1961;48.194;16.370;2022-12-07T08:24:16;49.60;;;10.55;;
3891;SDS011;1961;48.194;16.370;2022-12-07T08:26:42;51.58;;;9.73;;
3891;SDS011;1961;48.194;16.370;2022-12-07T08:29:08;48.35;;;9.70;;
3891;SDS011;1961;48.194;16.370;2022-12-07T08:31:35;46.55;;;9.55;;
3891;SDS011;1961;48.194;16.370;2022-12-07T08:34:01;47.13;;;9.68;;
3891;SDS011;1961;48.194;16.370;2022-12-07T08:36:27;45.17;;;8.68;;
3891;SDS011;1961;48.194;16.370;2022-12-07T08:38:53;50.10;;;9.93;;
3891;SDS011;1961;48.194;16.370;2022-12-07T08:41:20;48.75;;;11.32;;
3891;SDS011;1961;48.194;16.370;2022-12-07T08:43:46;47.05;;;9.50;;
3891;SDS011;1961;48.194;16.370;2022-12-07T08:46:23;47.17;;;10.63;;
3891;SDS011;1961;48.194;16.370;2022-12-07T08:48:52;51.78;;;9.40;;
3891;SDS011;1961;48.194;16.370;2022-12-07T08:51:20;46.63;;;9.43;;
3891;SDS011;1961;48.194;16.370;2022-12-07T08:53:48;44.38;;;8.65;;
3891;SDS011;1961;48.194;16.370;2022-12-07T08:56:14;46.00;;;9.57;;
3891;SDS011;1961;48.194;16.370;2022-12-07T08:58:41;46.80;;;9.68;;
3891;SDS011;1961;48.194;16.370;2022-12-07T09:01:07;48.03;;;9.82;;
3891;SDS011;1961;48.194;16.370;2022-12-07T09:03:33;46.58;;;9.07;;
3891;SDS011;1961;48.194;16.370;2022-12-07T09:06:00;47.78;;;9.55;;
3891;SDS011;1961;48.194;16.370;2022-12-07T09:08:26;49.33;;;9.57;;
3891;SDS011;1961;48.194;16.370;2022-12-07T09:10:55;47.20;;;9.48;;
3891;SDS011;1961;48.194;16.370;2022-12-07T09:13:21;46.65;;;9.30;;
3891;SDS011;1961;48.194;16.370;2022-12-07T09:15:47;44.90;;;8.65;;
3891;SDS011;1961;48.194;16.370;2022-12-07T09:18:13;48.05;;;10.25;;
3891;SDS011;1961;48.194;16.370;2022-12-07T09:20:40;45.95;;;9.40;;
3891;SDS011;1961;48.194;16.370;2022-12-07T09:23:06;44.80;;;10.07;;
3891;SDS011;1961;48.194;16.370;2022-12-07T09:25:33;45.63;;;9.10;;
3891;SDS011;1961;48.194;16.370;2022-12-07T09:27:59;46.63;;;9.68;;
3891;SDS011;1961;48.194;16.370;2022-12-07T09:30:26;53.95;;;9.63;;
3891;SDS011;1961;48.194;16.370;2022-12-07T09:32:52;48.35;;;9.35;;
3891;SDS011;1961;48.194;16.370;2022-12-07T09:35:19;47.13;;;10.43;;
3891;SDS011;1961;48.194;16.370;2022-12-07T09:37:45;46.40;;;8.95;;
3891;SDS011;1961;48.194;16.370;2022-12-07T09:40:11;47.90;;;10.02;;
3891;SDS011;1961;48.194;16.370;2022-12-07T09:42:39;47.20;;;10.10;;
3891;SDS011;1961;48.194;16.370;2022-12-07T09:45:17;46.50;;;9.95;;
3891;SDS011;1961;48.194;16.370;2022-12-07T09:47:44;46.30;;;9.85;;
3891;SDS011;1961;48.194;16.370;2022-12-07T09:50:15;46.40;;;9.43;;
3891;SDS011;1961;48.194;16.370;2022-12-07T09:52:43;47.30;;;10.25;;
3891;SDS011;1961;48.194;16.370;2022-12-07T09:55:15;44.42;;;8.18;;
3891;SDS011;1961;48.194;16.370;2022-12-07T09:57:41;47.80;;;9.45;;
3891;SDS011;1961;48.194;16.370;2022-12-07T10:00:14;45.47;;;8.70;;
3891;SDS011;1961;48.194;16.370;2022-12-07T10:02:42;48.10;;;10.10;;
3891;SDS011;1961;48.194;16.370;2022-12-07T10:05:14;45.10;;;8.23;;
3891;SDS011;1961;48.194;16.370;2022-12-07T10:07:41;46.70;;;8.35;;
3891;SDS011;1961;48.194;16.370;2022-12-07T10:10:14;46.67;;;9.57;;
3891;SDS011;1961;48.194;16.370;2022-12-07T10:13:14;46.17;;;9.95;;
3891;SDS011;1961;48.194;16.370;2022-12-07T10:18:19;46.65;;;10.10;;
3891;SDS011;1961;48.194;16.370;2022-12-07T10:20:47;45.55;;;9.20;;
3891;SDS011;1961;48.194;16.370;2022-12-07T10:23:15;46.75;;;9.75;;
3891;SDS011;1961;48.194;16.370;2022-12-07T10:25:41;49.25;;;9.55;;
3891;SDS011;1961;48.194;16.370;2022-12-07T10:30:45;45.83;;;9.60;;
3891;SDS011;1961;48.194;16.370;2022-12-07T10:35:56;48.15;;;9.50;;
3891;SDS011;1961;48.194;16.370;2022-12-07T10:38:23;47.03;;;9.73;;
3891;SDS011;1961;48.194;16.370;2022-12-07T10:41:02;44.95;;;8.75;;
3891;SDS011;1961;48.194;16.370;2022-12-07T10:43:28;45.08;;;8.27;;
3891;SDS011;1961;48.194;16.370;2022-12-07T10:46:18;45.47;;;8.80;;
3891;SDS011;1961;48.194;16.370;2022-12-07T10:51:15;44.25;;;8.50;;
3891;SDS011;1961;48.194;16.370;2022-12-07T11:07:19;44.28;;;8.55;;
3891;SDS011;1961;48.194;16.370;2022-12-07T11:11:48;45.85;;;8.32;;
3891;SDS011;1961;48.194;16.370;2022-12-07T11:16:57;44.80;;;9.20;;
3891;SDS011;1961;48.194;16.370;2022-12-07T11:22:02;46.22;;;9.85;;
3891;SDS011;1961;48.194;16.370;2022-12-07T11:24:40;46.63;;;10.23;;
3891;SDS011;1961;48.194;16.370;2022-12-07T11:27:24;47.65;;;11.00;;
3891;SDS011;1961;48.194;16.370;2022-12-07T11:34:59;48.72;;;9.68;;
3891;SDS011;1961;48.194;16.370;2022-12-07T11:37:32;45.75;;;9.20;;
3891;SDS011;1961;48.194;16.370;2022-12-07T11:40:00;46.55;;;9.82;;
3891;SDS011;1961;48.194;16.370;2022-12-07T11:42:29;45.35;;;8.20;;
3891;SDS011;1961;48.194;16.370;2022-12-07T11:45:00;46.10;;;9.05;;
3891;SDS011;1961;48.194;16.370;2022-12-07T11:50:02;46.20;;;9.23;;
3891;SDS011;1961;48.194;16.370;2022-12-07T11:52:35;46.10;;;9.05;;
3891;SDS011;1961;48.194;16.370;2022-12-07T11:55:05;46.42;;;9.07;;
3891;SDS011;1961;48.194;16.370;2022-12-07T11:57:41;47.17;;;8.43;;
3891;SDS011;1961;48.194;16.370;2022-12-07T12:00:14;47.22;;;9.25;;
3891;SDS011;1961;48.194;16.370;2022-12-07T12:02:43;47.45;;;8.05;;
3891;SDS011;1961;48.194;16.370;2022-12-07T12:05:19;48.13;;;9.95;;
3891;SDS011;1961;48.194;16.370;2022-12-07T12:07:48;45.15;;;7.68;;
3891;SDS011;1961;48.194;16.370;2022-12-07T12:10:18;47.72;;;9.32;;
3891;SDS011;1961;48.194;16.370;2022-12-07T12:13:00;47.15;;;9.60;;
3891;SDS011;1961;48.194;16.370;2022-12-07T12:15:45;49.97;;;9.57;;
3891;SDS011;1961;48.194;16.370;2022-12-07T12:23:11;50.20;;;10.20;;
3891;SDS011;1961;48.194;16.370;2022-12-07T12:25:40;46.50;;;9.50;;
3891;SDS011;1961;48.194;16.370;2022-12-07T12:28:10;46.40;;;8.95;;
3891;SDS011;1961;48.194;16.370;2022-12-07T12:30:43;45.30;;;9.00;;
3891;SDS011;1961;48.194;16.370;2022-12-07T12:35:41;44.10;;;8.45;;
3891;SDS011;1961;48.194;16.370;2022-12-07T12:40:52;46.80;;;9.27;;
3891;SDS011;1961;48.194;16.370;2022-12-07T12:59:22;44.78;;;9.10;;
3891;SDS011;1961;48.194;16.370;2022-12-07T13:01:53;46.30;;;8.40;;
3891;SDS011;1961;48.194;16.370;2022-12-07T13:04:24;46.95;;;10.07;;
3891;SDS011;1961;48.194;16.370;2022-12-07T13:06:51;45.95;;;8.70;;
3891;SDS011;1961;48.194;16.370;2022-12-07T13:09:21;46.53;;;8.50;;
3891;SDS011;1961;48.194;16.370;2022-12-07T13:11:48;50.33;;;12.93;;
3891;SDS011;1961;48.194;16.370;2022-12-07T13:17:00;46.75;;;8.73;;
3891;SDS011;1961;48.194;16.370;2022-12-07T13:22:50;45.70;;;9.02;;
3891;SDS011;1961;48.194;16.370;2022-12-07T13:27:26;46.78;;;9.35;;
3891;SDS011;1961;48.194;16.370;2022-12-07T13:29:53;47.25;;;9.60;;
3891;SDS011;1961;48.194;16.370;2022-12-07T13:32:37;45.05;;;8.55;;
3891;SDS011;1961;48.194;16.370;2022-12-07T13:35:27;46.90;;;9.05;;
3891;SDS011;1961;48.194;16.370;2022-12-07T13:37:50;45.20;;;8.70;;
3891;SDS011;1961;48.194;16.370;2022-12-07T13:40:19;46.70;;;8.48;;
3891;SDS011;1961;48.194;16.370;2022-12-07T13:42:45;46.10;;;8.65;;
3891;SDS011;1961;48.194;16.370;2022-12-07T13:45:21;47.17;;;9.50;;
3891;SDS011;1961;48.194;16.370;2022-12-07T13:48:08;49.58;;;9.55;;
3891;SDS011;1961;48.194;16.370;2022-12-07T13:50:38;49.22;;;10.05;;
3891;SDS011;1961;48.194;16.370;2022-12-07T13:53:07;47.67;;;8.95;;
3891;SDS011;1961;48.194;16.370;2022-12-07T13:55:37;48.78;;;9.25;;
3891;SDS011;1961;48.194;16.370;2022-12-07T13:58:10;47.78;;;9.75;;
3891;SDS011;1961;48.194;16.370;2022-12-07T14:00:36;47.92;;;9.90;;
3891;SDS011;1961;48.194;16.370;2022-12-07T14:03:04;47.20;;;9.65;;
3891;SDS011;1961;48.194;16.370;2022-12-07T14:05:31;48.50;;;10.93;;
3891;SDS011;1961;48.194;16.370;2022-12-07T14:07:58;48.58;;;10.35;;
3891;SDS011;1961;48.194;16.370;2022-12-07T14:10:26;50.88;;;12.45;;
3891;SDS011;1961;48.194;16.370;2022-12-07T14:12:52;46.50;;;9.05;;
3891;SDS011;1961;48.194;16.370;2022-12-07T14:15:19;49.30;;;10.40;;
3891;SDS011;1961;48.194;16.370;2022-12-07T14:17:53;46.25;;;8.95;;
3891;SDS011;1961;48.194;16.370;2022-12-07T14:20:32;50.28;;;9.35;;
3891;SDS011;1961;48.194;16.370;2022-12-07T14:22:59;46.70;;;9.73;;
3891;SDS011;1961;48.194;16.370;2022-12-07T14:25:43;47.45;;;9.35;;
3891;SDS011;1961;48.194;16.370;2022-12-07T14:28:10;47.70;;;10.00;;
3891;SDS011;1961;48.194;16.370;2022-12-07T14:30:50;46.65;;;10.30;;
3891;SDS011;1961;48.194;16.370;2022-12-07T14:33:16;49.88;;;11.35;;
3891;SDS011;1961;48.194;16.370;2022-12-07T14:35:42;59.35;;;13.80;;
3891;SDS011;1961;48.194;16.370;2022-12-07T14:38:08;49.65;;;11.52;;
3891;SDS011;1961;48.194;16.370;2022-12-07T14:40:34;48.88;;;11.18;;
3891;SDS011;1961;48.194;16.370;2022-12-07T14:43:02;48.60;;;10.90;;
3891;SDS011;1961;48.194;16.370;2022-12-07T14:45:29;48.83;;;10.48;;
3891;SDS011;1961;48.194;16.370;2022-12-07T14:47:55;48.95;;;11.05;;
3891;SDS011;1961;48.194;16.370;2022-12-07T14:50:21;47.17;;;10.00;;
3891;SDS011;1961;48.194;16.370;2022-12-07T14:53:10;47.97;;;10.05;;
3891;SDS011;1961;48.194;16.370;2022-12-07T14:55:38;50.17;;;10.30;;
3891;SDS011;1961;48.194;16.370;2022-12-07T14:58:04;47.63;;;10.70;;
3891;SDS011;1961;48.194;16.370;2022-12-07T15:00:31;48.97;;;11.15;;
3891;SDS011;1961;48.194;16.370;2022-12-07T15:02:59;49.22;;;10.90;;
3891;SDS011;1961;48.194;16.370;2022-12-07T15:05:25;51.47;;;11.77;;
3891;SDS011;1961;48.194;16.370;2022-12-07T15:07:51;50.80;;;11.95;;
3891;SDS011;1961;48.194;16.370;2022-12-07T15:12:43;49.70;;;12.13;;
3891;SDS011;1961;48.194;16.370;2022-12-07T15:15:09;51.58;;;10.85;;
3891;SDS011;1961;48.194;16.370;2022-12-07T15:17:36;49.50;;;11.30;;
3891;SDS011;1961;48.194;16.370;2022-12-07T15:20:02;53.95;;;14.05;;
3891;SDS011;1961;48.194;16.370;2022-12-07T15:22:28;51.60;;;12.50;;
3891;SDS011;1961;48.194;16.370;2022-12-07T15:24:56;48.60;;;11.48;;
3891;SDS011;1961;48.194;16.370;2022-12-07T15:27:22;53.20;;;11.80;;
3891;SDS011;1961;48.194;16.370;2022-12-07T15:29:48;48.88;;;10.88;;
3891;SDS011;1961;48.194;16.370;2022-12-07T15:32:14;54.10;;;14.60;;
3891;SDS011;1961;48.194;16.370;2022-12-07T15:34:40;47.80;;;10.20;;
3891;SDS011;1961;48.194;16.370;2022-12-07T15:37:07;52.95;;;13.68;;
3891;SDS011;1961;48.194;16.370;2022-12-07T15:39:33;50.85;;;11.65;;
3891;SDS011;1961;48.194;16.370;2022-12-07T15:41:59;50.03;;;11.85;;
3891;SDS011;1961;48.194;16.370;2022-12-07T15:44:25;49.13;;;10.85;;
3891;SDS011;1961;48.194;16.370;2022-12-07T15:47:12;48.08;;;9.73;;
3891;SDS011;1961;48.194;16.370;2022-12-07T15:49:38;53.15;;;12.32;;
3891;SDS011;1961;48.194;16.370;2022-12-07T15:52:04;47.42;;;10.43;;
3891;SDS011;1961;48.194;16.370;2022-12-07T15:54:30;48.63;;;11.15;;
3891;SDS011;1961;48.194;16.370;2022-12-07T15:56:57;53.00;;;11.80;;
3891;SDS011;1961;48.194;16.370;2022-12-07T15:59:23;50.75;;;10.50;;
3891;SDS011;1961;48.194;16.370;2022-12-07T16:01:49;52.35;;;11.43;;
3891;SDS011;1961;48.194;16.370;2022-12-07T16:04:15;50.13;;;12.27;;
3891;SDS011;1961;48.194;16.370;2022-12-07T16:06:41;50.30;;;11.85;;
3891;SDS011;1961;48.194;16.370;2022-12-07T16:09:07;51.55;;;10.95;;
3891;SDS011;1961;48.194;16.370;2022-12-07T16:11:34;48.85;;;10.80;;
3891;SDS011;1961;48.194;16.370;2022-12-07T16:14:00;51.53;;;11.23;;
3891;SDS011;1961;48.194;16.370;2022-12-07T16:16:26;51.60;;;11.30;;
3891;SDS011;1961;48.194;16.370;2022-12-07T16:18:52;51.15;;;11.40;;
3891;SDS011;1961;48.194;16.370;2022-12-07T16:21:19;51.75;;;11.85;;
3891;SDS011;1961;48.194;16.370;2022-12-07T16:23:45;50.35;;;12.23;;
3891;SDS011;1961;48.194;16.370;2022-12-07T16:26:12;49.97;;;10.88;;
3891;SDS011;1961;48.194;16.370;2022-12-07T16:28:39;48.45;;;11.40;;
3891;SDS011;1961;48.194;16.370;2022-12-07T16:31:06;55.55;;;13.75;;
3891;SDS011;1961;48.194;16.370;2022-12-07T16:33:35;53.15;;;13.07;;